0TX1 – Local Weather Observations

Pecan Plantation / Sawgrass Ct

This weather station is operated by a private user located just north of the field. See WeatherUnderground for the full data feed and other nearby stations.

Last updated:
2018-09-24 06:13:31 (1:13 am)

Temperature: 68.7 °F

Sunrise / Sunset: 7:19 am / 7:25 pm

Moonrise / Moonset: 7:35 pm / 6:47 am

Winds gusting from the East-Northeast at 0.0 mph

Nearby METARs

KGDJ 240615Z AUTO 00000KT 10SM OVC007 22/20 A2993 RMK AO2 T02150198

KCPT 240615Z AUTO 30003KT 5SM BR BKN009 OVC012 21/21 A2993 RMK AO2

KFWS 240615Z AUTO 00000KT 5SM BR BKN006 OVC017 21/20 A2992 RMK AO2 T02120203